Time,TemperatureF,DewpointF,PressureIn,WindDirection,WindDirectionDegrees,WindSpeedMPH,WindSpeedGustMPH,Humidity,HourlyPrecipIn,Conditions,Clouds,dailyrainin,SoftwareType,DateUTC
2013-01-20 00:01:00,42.1,31.2,30.18,SE,136,1.0,1.0,65,0.00,CLR,,0.00,WeatherDisplay:10.37,2013-01-20 05:01:00,
2013-01-20 00:06:00,42.1,31.2,30.18,SE,136,1.0,1.0,65,0.00,CLR,,0.00,WeatherDisplay:10.37,2013-01-20 05:06:00,
2013-01-20 00:11:00,42.1,31.2,30.18,SE,136,1.0,1.0,65,0.00,CLR,,0.00,WeatherDisplay:10.37,2013-01-20 05:11:00,
2013-01-20 00:16:00,42.1,31.2,30.18,SE,136,1.0,1.0,65,0.00,CLR,,0.00,WeatherDisplay:10.37,2013-01-20 05:16:00,
2013-01-20 00:21:00,42.1,31.2,30.18,SE,136,1.0,1.0,65,0.00,CLR,,0.00,WeatherDisplay:10.37,2013-01-20 05:21:00,
2013-01-20 00:26:00,42.1,31.2,30.18,SE,136,1.0,1.0,65,0.00,CLR,,0.00,WeatherDisplay:10.37,2013-01-20 05:26:00,
2013-01-20 00:31:00,42.1,31.2,30.18,SE,136,1.0,1.0,65,0.00,CLR,,0.00,WeatherDisplay:10.37,2013-01-20 05:31:00,
2013-01-20 00:36:00,42.1,31.2,30.18,SE,136,1.0,1.0,65,0.00,CLR,,0.00,WeatherDisplay:10.37,2013-01-20 05:36:00,
2013-01-20 00:37:00,42.1,31.2,30.18,SE,136,1.0,1.0,65,0.00,CLR,,0.00,WeatherDisplay:10.37,2013-01-20 05:37:00,
2013-01-20 00:42:00,42.1,31.2,30.18,SE,136,1.0,1.0,65,0.00,CLR,,0.00,WeatherDisplay:10.37,2013-01-20 05:42:00,
2013-01-20 00:47:00,42.1,31.2,30.18,SE,136,1.0,1.0,65,0.00,CLR,,0.00,WeatherDisplay:10.37,2013-01-20 05:47:00,
2013-01-20 00:52:00,42.1,31.2,30.18,SE,136,1.0,1.0,65,0.00,CLR,,0.00,WeatherDisplay:10.37,2013-01-20 05:52:00,
2013-01-20 00:57:00,42.1,31.2,30.18,SE,136,1.0,1.0,65,0.00,CLR,,0.00,WeatherDisplay:10.37,2013-01-20 05:57:00,
2013-01-20 01:01:00,60.9,36.4,30.00,WNW,293,6.0,8.0,40,0.00,CL,CL,0.00,WeatherDisplay:10.37,2013-01-20 06:01:00,
2013-01-20 01:02:00,42.1,31.2,30.18,SE,136,1.0,1.0,65,0.00,CLR,,0.00,WeatherDisplay:10.37,2013-01-20 06:02:00,
2013-01-20 01:07:00,42.1,31.2,30.18,SE,136,1.0,1.0,65,0.00,CLR,,0.00,WeatherDisplay:10.37,2013-01-20 06:07:00,
2013-01-20 01:12:00,42.1,31.2,30.18,SE,136,1.0,1.0,65,0.00,CLR,,0.00,WeatherDisplay:10.37,2013-01-20 06:12:00,
2013-01-20 01:17:00,42.1,31.2,30.18,SE,136,1.0,1.0,65,0.00,CLR,,0.00,WeatherDisplay:10.37,2013-01-20 06:17:00,
2013-01-20 01:22:00,42.1,31.2,30.18,SE,136,1.0,1.0,65,0.00,CLR,,0.00,WeatherDisplay:10.37,2013-01-20 06:22:00,
2013-01-20 01:27:00,42.1,31.2,30.18,SE,136,1.0,1.0,65,0.00,CLR,,0.00,WeatherDisplay:10.37,2013-01-20 06:27:00,
2013-01-20 01:32:00,42.1,31.2,30.18,SE,136,1.0,1.0,65,0.00,CLR,,0.00,WeatherDisplay:10.37,2013-01-20 06:32:00,
2013-01-20 01:37:00,42.1,31.2,30.18,SE,136,1.0,1.0,65,0.00,CLR,,0.00,WeatherDisplay:10.37,2013-01-20 06:37:00,
2013-01-20 01:42:00,42.1,31.2,30.18,SE,136,1.0,1.0,65,0.00,CLR,,0.00,WeatherDisplay:10.37,2013-01-20 06:42:00,
2013-01-20 01:47:00,42.1,31.2,30.18,SE,136,1.0,1.0,65,0.00,CLR,,0.00,WeatherDisplay:10.37,2013-01-20 06:47:00,
2013-01-20 01:52:00,42.1,31.2,30.18,SE,136,1.0,1.0,65,0.00,CLR,,0.00,WeatherDisplay:10.37,2013-01-20 06:52:00,
2013-01-20 01:57:00,42.1,31.2,30.18,SE,136,1.0,1.0,65,0.00,CLR,,0.00,WeatherDisplay:10.37,2013-01-20 06:57:00,
2013-01-20 02:01:00,62.6,33.8,29.98,WSW,248,5.0,12.0,34,0.00,CL,CL,0.00,WeatherDisplay:10.37,2013-01-20 07:01:00,
2013-01-20 02:03:00,42.1,31.2,30.18,SE,136,1.0,1.0,65,0.00,CLR,,0.00,WeatherDisplay:10.37,2013-01-20 07:03:00,
2013-01-20 02:08:00,42.1,31.2,30.18,SE,136,1.0,1.0,65,0.00,CLR,,0.00,WeatherDisplay:10.37,2013-01-20 07:08:00,
2013-01-20 02:13:00,42.1,31.2,30.18,SE,136,1.0,1.0,65,0.00,CLR,,0.00,WeatherDisplay:10.37,2013-01-20 07:13:00,
2013-01-20 02:18:00,42.1,31.2,30.18,SE,136,1.0,1.0,65,0.00,CLR,,0.00,WeatherDisplay:10.37,2013-01-20 07:18:00,
2013-01-20 02:23:00,42.1,31.2,30.18,SE,136,1.0,1.0,65,0.00,CLR,,0.00,WeatherDisplay:10.37,2013-01-20 07:23:00,
2013-01-20 02:28:00,42.1,31.2,30.18,SE,136,1.0,1.0,65,0.00,CLR,,0.00,WeatherDisplay:10.37,2013-01-20 07:28:00,
2013-01-20 02:33:00,42.1,31.2,30.18,SE,136,1.0,1.0,65,0.00,CLR,,0.00,WeatherDisplay:10.37,2013-01-20 07:33:00,
2013-01-20 02:38:00,42.1,31.2,30.18,SE,136,1.0,1.0,65,0.00,CLR,,0.00,WeatherDisplay:10.37,2013-01-20 07:38:00,
2013-01-20 02:43:00,42.1,31.2,30.18,SE,136,1.0,1.0,65,0.00,CLR,,0.00,WeatherDisplay:10.37,2013-01-20 07:43:00,
2013-01-20 02:48:00,42.1,31.2,30.18,SE,136,1.0,1.0,65,0.00,CLR,,0.00,WeatherDisplay:10.37,2013-01-20 07:48:00,
2013-01-20 02:53:00,42.1,31.2,30.18,SE,136,1.0,1.0,65,0.00,CLR,,0.00,WeatherDisplay:10.37,2013-01-20 07:53:00,
2013-01-20 02:58:00,42.1,31.2,30.18,SE,136,1.0,1.0,65,0.00,CLR,,0.00,WeatherDisplay:10.37,2013-01-20 07:58:00,
2013-01-20 03:01:00,62.8,34.0,29.97,NW,315,1.0,1.0,34,0.00,CL,CL,0.00,WeatherDisplay:10.37,2013-01-20 08:01:00,
2013-01-20 03:03:00,42.1,31.2,30.18,SE,136,1.0,1.0,65,0.00,CLR,,0.00,WeatherDisplay:10.37,2013-01-20 08:03:00,
2013-01-20 03:08:00,42.1,31.2,30.18,SE,136,1.0,1.0,65,0.00,CLR,,0.00,WeatherDisplay:10.37,2013-01-20 08:08:00,
2013-01-20 03:13:00,42.1,31.2,30.18,SE,136,1.0,1.0,65,0.00,CLR,,0.00,WeatherDisplay:10.37,2013-01-20 08:13:00,
2013-01-20 03:18:00,42.1,31.2,30.18,SE,136,1.0,1.0,65,0.00,CLR,,0.00,WeatherDisplay:10.37,2013-01-20 08:18:00,
2013-01-20 03:23:00,42.1,31.2,30.18,SE,136,1.0,1.0,65,0.00,CLR,,0.00,WeatherDisplay:10.37,2013-01-20 08:23:00,
2013-01-20 03:28:00,42.1,31.2,30.18,SE,136,1.0,1.0,65,0.00,CLR,,0.00,WeatherDisplay:10.37,2013-01-20 08:28:00,
2013-01-20 03:33:00,42.1,31.2,30.18,SE,136,1.0,1.0,65,0.00,CLR,,0.00,WeatherDisplay:10.37,2013-01-20 08:33:00,
2013-01-20 03:38:00,42.1,31.2,30.18,SE,136,1.0,1.0,65,0.00,CLR,,0.00,WeatherDisplay:10.37,2013-01-20 08:38:00,
2013-01-20 03:43:00,42.1,31.2,30.18,SE,136,1.0,1.0,65,0.00,CLR,,0.00,WeatherDisplay:10.37,2013-01-20 08:43:00,
2013-01-20 03:48:00,42.1,31.2,30.18,SE,136,1.0,1.0,65,0.00,CLR,,0.00,WeatherDisplay:10.37,2013-01-20 08:48:00,
2013-01-20 03:53:00,42.1,31.2,30.18,SE,136,1.0,1.0,65,0.00,CLR,,0.00,WeatherDisplay:10.37,2013-01-20 08:53:00,
2013-01-20 03:58:00,42.1,31.2,30.18,SE,136,1.0,1.0,65,0.00,CLR,,0.00,WeatherDisplay:10.37,2013-01-20 08:58:00,
2013-01-20 04:01:00,62.5,33.7,29.97,West,270,2.0,12.0,34,0.00,CL,CL,0.00,WeatherDisplay:10.37,2013-01-20 09:01:00,
2013-01-20 04:03:00,42.1,31.2,30.18,SE,136,1.0,1.0,65,0.00,CLR,,0.00,WeatherDisplay:10.37,2013-01-20 09:03:00,
2013-01-20 04:08:00,42.1,31.2,30.18,SE,136,1.0,1.0,65,0.00,CLR,,0.00,WeatherDisplay:10.37,2013-01-20 09:08:00,
2013-01-20 04:13:00,42.1,31.2,30.18,SE,136,1.0,1.0,65,0.00,CLR,,0.00,WeatherDisplay:10.37,2013-01-20 09:13:00,
2013-01-20 04:18:00,42.1,31.2,30.18,SE,136,1.0,1.0,65,0.00,CLR,,0.00,WeatherDisplay:10.37,2013-01-20 09:18:00,
2013-01-20 04:23:00,42.1,31.2,30.18,SE,136,1.0,1.0,65,0.00,CLR,,0.00,WeatherDisplay:10.37,2013-01-20 09:23:00,
2013-01-20 04:28:00,42.1,31.2,30.18,SE,136,1.0,1.0,65,0.00,CLR,,0.00,WeatherDisplay:10.37,2013-01-20 09:28:00,
2013-01-20 04:33:00,42.1,31.2,30.18,SE,136,1.0,1.0,65,0.00,CLR,,0.00,WeatherDisplay:10.37,2013-01-20 09:33:00,
2013-01-20 04:38:00,42.1,31.2,30.18,SE,136,1.0,1.0,65,0.00,CLR,,0.00,WeatherDisplay:10.37,2013-01-20 09:38:00,
2013-01-20 04:43:00,42.1,31.2,30.18,SE,136,1.0,1.0,65,0.00,CLR,,0.00,WeatherDisplay:10.37,2013-01-20 09:43:00,
2013-01-20 04:48:00,42.1,31.2,30.18,SE,136,1.0,1.0,65,0.00,CLR,,0.00,WeatherDisplay:10.37,2013-01-20 09:48:00,
2013-01-20 04:53:00,42.1,31.2,30.18,SE,136,1.0,1.0,65,0.00,CLR,,0.00,WeatherDisplay:10.37,2013-01-20 09:53:00,
2013-01-20 04:58:00,42.1,31.2,30.18,SE,136,1.0,1.0,65,0.00,CLR,,0.00,WeatherDisplay:10.37,2013-01-20 09:58:00,
2013-01-20 05:01:00,60.6,34.2,29.98,WNW,293,0.0,2.0,37,0.00,CL,CL,0.00,WeatherDisplay:10.37,2013-01-20 10:01:00,
2013-01-20 05:03:00,42.1,31.2,30.18,SE,136,1.0,1.0,65,0.00,CLR,,0.00,WeatherDisplay:10.37,2013-01-20 10:03:00,
2013-01-20 05:08:00,42.1,31.2,30.18,SE,136,1.0,1.0,65,0.00,CLR,,0.00,WeatherDisplay:10.37,2013-01-20 10:08:00,
2013-01-20 05:13:00,42.1,31.2,30.18,SE,136,1.0,1.0,65,0.00,CLR,,0.00,WeatherDisplay:10.37,2013-01-20 10:13:00,
2013-01-20 05:18:00,42.1,31.2,30.18,SE,136,1.0,1.0,65,0.00,CLR,,0.00,WeatherDisplay:10.37,2013-01-20 10:18:00,
2013-01-20 05:23:00,42.1,31.2,30.18,SE,136,1.0,1.0,65,0.00,CLR,,0.00,WeatherDisplay:10.37,2013-01-20 10:23:00,
2013-01-20 05:28:00,42.1,31.2,30.18,SE,136,1.0,1.0,65,0.00,CLR,,0.00,WeatherDisplay:10.37,2013-01-20 10:28:00,
2013-01-20 05:33:00,42.1,31.2,30.18,SE,136,1.0,1.0,65,0.00,CLR,,0.00,WeatherDisplay:10.37,2013-01-20 10:33:00,
2013-01-20 05:38:00,42.1,31.2,30.18,SE,136,1.0,1.0,65,0.00,CLR,,0.00,WeatherDisplay:10.37,2013-01-20 10:38:00,
2013-01-20 05:43:00,42.1,31.2,30.18,SE,136,1.0,1.0,65,0.00,CLR,,0.00,WeatherDisplay:10.37,2013-01-20 10:43:00,
2013-01-20 05:48:00,42.1,31.2,30.18,SE,136,1.0,1.0,65,0.00,CLR,,0.00,WeatherDisplay:10.37,2013-01-20 10:48:00,
2013-01-20 05:53:00,42.1,31.2,30.18,SE,136,1.0,1.0,65,0.00,CLR,,0.00,WeatherDisplay:10.37,2013-01-20 10:53:00,
2013-01-20 05:58:00,42.1,31.2,30.18,SE,136,1.0,1.0,65,0.00,CLR,,0.00,WeatherDisplay:10.37,2013-01-20 10:58:00,
2013-01-20 06:01:00,54.3,35.0,30.00,SSW,203,0.0,0.0,48,0.00,CL,CL,0.00,WeatherDisplay:10.37,2013-01-20 11:01:00,
2013-01-20 06:03:00,42.1,31.2,30.18,SE,136,1.0,1.0,65,0.00,CLR,,0.00,WeatherDisplay:10.37,2013-01-20 11:03:00,
2013-01-20 06:08:00,42.1,31.2,30.18,SE,136,1.0,1.0,65,0.00,CLR,,0.00,WeatherDisplay:10.37,2013-01-20 11:08:00,
2013-01-20 06:13:00,42.1,31.2,30.18,SE,136,1.0,1.0,65,0.00,CLR,,0.00,WeatherDisplay:10.37,2013-01-20 11:13:00,
2013-01-20 06:18:00,42.1,31.2,30.18,SE,136,1.0,1.0,65,0.00,CLR,,0.00,WeatherDisplay:10.37,2013-01-20 11:18:00,
2013-01-20 06:23:00,42.1,31.2,30.18,SE,136,1.0,1.0,65,0.00,CLR,,0.00,WeatherDisplay:10.37,2013-01-20 11:23:00,
2013-01-20 06:28:00,42.1,31.2,30.18,SE,136,1.0,1.0,65,0.00,CLR,,0.00,WeatherDisplay:10.37,2013-01-20 11:28:00,
2013-01-20 06:33:00,42.1,31.2,30.18,SE,136,1.0,1.0,65,0.00,CLR,,0.00,WeatherDisplay:10.37,2013-01-20 11:33:00,
2013-01-20 06:38:00,42.1,31.2,30.18,SE,136,1.0,1.0,65,0.00,CLR,,0.00,WeatherDisplay:10.37,2013-01-20 11:38:00,
2013-01-20 06:43:00,42.1,31.2,30.18,SE,136,1.0,1.0,65,0.00,CLR,,0.00,WeatherDisplay:10.37,2013-01-20 11:43:00,
2013-01-20 06:48:00,42.1,31.2,30.18,SE,136,1.0,1.0,65,0.00,CLR,,0.00,WeatherDisplay:10.37,2013-01-20 11:48:00,
2013-01-20 06:53:00,42.1,31.2,30.18,SE,136,1.0,1.0,65,0.00,CLR,,0.00,WeatherDisplay:10.37,2013-01-20 11:53:00,
2013-01-20 06:58:00,42.1,31.2,30.18,SE,136,1.0,1.0,65,0.00,CLR,,0.00,WeatherDisplay:10.37,2013-01-20 11:58:00,
2013-01-20 07:01:00,50.7,35.1,30.03,West,270,0.0,0.0,55,0.00,CL,CL,0.00,WeatherDisplay:10.37,2013-01-20 12:01:00,
2013-01-20 07:03:00,42.1,31.2,30.18,SE,136,1.0,1.0,65,0.00,CLR,,0.00,WeatherDisplay:10.37,2013-01-20 12:03:00,
2013-01-20 07:08:00,42.1,31.2,30.18,SE,136,1.0,1.0,65,0.00,CLR,,0.00,WeatherDisplay:10.37,2013-01-20 12:08:00,
2013-01-20 07:13:00,42.1,31.2,30.18,SE,136,1.0,1.0,65,0.00,CLR,,0.00,WeatherDisplay:10.37,2013-01-20 12:13:00,
2013-01-20 07:18:00,42.1,31.2,30.18,SE,136,1.0,1.0,65,0.00,CLR,,0.00,WeatherDisplay:10.37,2013-01-20 12:18:00,
2013-01-20 07:23:00,42.1,31.2,30.18,SE,136,1.0,1.0,65,0.00,CLR,,0.00,WeatherDisplay:10.37,2013-01-20 12:23:00,
2013-01-20 07:28:00,42.1,31.2,30.18,SE,136,1.0,1.0,65,0.00,CLR,,0.00,WeatherDisplay:10.37,2013-01-20 12:28:00,
2013-01-20 07:33:00,42.1,31.2,30.18,SE,136,1.0,1.0,65,0.00,CLR,,0.00,WeatherDisplay:10.37,2013-01-20 12:33:00,
2013-01-20 07:38:00,42.1,31.2,30.18,SE,136,1.0,1.0,65,0.00,CLR,,0.00,WeatherDisplay:10.37,2013-01-20 12:38:00,
2013-01-20 07:43:00,42.1,31.2,30.18,SE,136,1.0,1.0,65,0.00,CLR,,0.00,WeatherDisplay:10.37,2013-01-20 12:43:00,
2013-01-20 07:49:00,42.1,31.2,30.18,SE,136,1.0,1.0,65,0.00,CLR,,0.00,WeatherDisplay:10.37,2013-01-20 12:49:00,
2013-01-20 07:54:00,42.1,31.2,30.18,SE,136,1.0,1.0,65,0.00,CLR,,0.00,WeatherDisplay:10.37,2013-01-20 12:54:00,
2013-01-20 07:59:00,42.1,31.2,30.18,SE,136,1.0,1.0,65,0.00,CLR,,0.00,WeatherDisplay:10.37,2013-01-20 12:59:00,
2013-01-20 08:01:00,51.8,32.2,30.05,WNW,293,0.0,0.0,47,0.00,CL,CL,0.00,WeatherDisplay:10.37,2013-01-20 13:01:00,
2013-01-20 08:04:00,42.1,31.2,30.18,SE,136,1.0,1.0,65,0.00,CLR,,0.00,WeatherDisplay:10.37,2013-01-20 13:04:00,
2013-01-20 08:09:00,42.1,31.2,30.18,SE,136,1.0,1.0,65,0.00,CLR,,0.00,WeatherDisplay:10.37,2013-01-20 13:09:00,
2013-01-20 08:14:00,42.1,31.2,30.18,SE,136,1.0,1.0,65,0.00,CLR,,0.00,WeatherDisplay:10.37,2013-01-20 13:14:00,
2013-01-20 08:19:00,42.1,31.2,30.18,SE,136,1.0,1.0,65,0.00,CLR,,0.00,WeatherDisplay:10.37,2013-01-20 13:19:00,
2013-01-20 08:24:00,42.1,31.2,30.18,SE,136,1.0,1.0,65,0.00,CLR,,0.00,WeatherDisplay:10.37,2013-01-20 13:24:00,
2013-01-20 08:29:00,42.1,31.2,30.18,SE,136,1.0,1.0,65,0.00,CLR,,0.00,WeatherDisplay:10.37,2013-01-20 13:29:00,
2013-01-20 08:34:00,42.1,31.2,30.18,SE,136,1.0,1.0,65,0.00,CLR,,0.00,WeatherDisplay:10.37,2013-01-20 13:34:00,
2013-01-20 08:39:00,42.1,31.2,30.18,SE,136,1.0,1.0,65,0.00,CLR,,0.00,WeatherDisplay:10.37,2013-01-20 13:39:00,
2013-01-20 08:44:00,42.1,31.2,30.18,SE,136,1.0,1.0,65,0.00,CLR,,0.00,WeatherDisplay:10.37,2013-01-20 13:44:00,
2013-01-20 08:49:00,42.1,31.2,30.18,SE,136,1.0,1.0,65,0.00,CLR,,0.00,WeatherDisplay:10.37,2013-01-20 13:49:00,
2013-01-20 08:54:00,42.1,31.2,30.18,SE,136,1.0,1.0,65,0.00,CLR,,0.00,WeatherDisplay:10.37,2013-01-20 13:54:00,
2013-01-20 08:59:00,42.1,31.2,30.18,SE,136,1.0,1.0,65,0.00,CLR,,0.00,WeatherDisplay:10.37,2013-01-20 13:59:00,
2013-01-20 09:01:00,47.5,30.2,30.06,NW,315,0.0,0.0,51,0.00,CL,CL,0.00,WeatherDisplay:10.37,2013-01-20 14:01:00,
2013-01-20 09:04:00,42.1,31.2,30.18,SE,136,1.0,1.0,65,0.00,CLR,,0.00,WeatherDisplay:10.37,2013-01-20 14:04:00,
2013-01-20 09:09:00,42.1,31.2,30.18,SE,136,1.0,1.0,65,0.00,CLR,,0.00,WeatherDisplay:10.37,2013-01-20 14:09:00,
2013-01-20 09:14:00,42.1,31.2,30.18,SE,136,1.0,1.0,65,0.00,CLR,,0.00,WeatherDisplay:10.37,2013-01-20 14:14:00,
2013-01-20 09:19:00,42.1,31.2,30.18,SE,136,1.0,1.0,65,0.00,CLR,,0.00,WeatherDisplay:10.37,2013-01-20 14:19:00,
2013-01-20 09:24:00,42.1,31.2,30.18,SE,136,1.0,1.0,65,0.00,CLR,,0.00,WeatherDisplay:10.37,2013-01-20 14:24:00,
2013-01-20 09:29:00,42.1,31.2,30.18,SE,136,1.0,1.0,65,0.00,CLR,,0.00,WeatherDisplay:10.37,2013-01-20 14:29:00,
2013-01-20 09:34:00,42.1,31.2,30.18,SE,136,1.0,1.0,65,0.00,CLR,,0.00,WeatherDisplay:10.37,2013-01-20 14:34:00,
2013-01-20 09:39:00,42.1,31.2,30.18,SE,136,1.0,1.0,65,0.00,CLR,,0.00,WeatherDisplay:10.37,2013-01-20 14:39:00,
2013-01-20 09:44:00,42.1,31.2,30.18,SE,136,1.0,1.0,65,0.00,CLR,,0.00,WeatherDisplay:10.37,2013-01-20 14:44:00,
2013-01-20 09:49:00,42.1,31.2,30.18,SE,136,1.0,1.0,65,0.00,CLR,,0.00,WeatherDisplay:10.37,2013-01-20 14:49:00,
2013-01-20 09:54:00,42.1,31.2,30.18,SE,136,1.0,1.0,65,0.00,CLR,,0.00,WeatherDisplay:10.37,2013-01-20 14:54:00,
2013-01-20 09:59:00,42.1,31.2,30.18,SE,136,1.0,1.0,65,0.00,CLR,,0.00,WeatherDisplay:10.37,2013-01-20 14:59:00,
2013-01-20 10:01:00,43.5,30.5,30.07,West,270,0.0,0.0,60,0.00,CL,CL,0.00,WeatherDisplay:10.37,2013-01-20 15:01:00,
2013-01-20 10:04:00,42.1,31.2,30.18,SE,136,1.0,1.0,65,0.00,CLR,,0.00,WeatherDisplay:10.37,2013-01-20 15:04:00,
2013-01-20 10:09:00,42.1,31.2,30.18,SE,136,1.0,1.0,65,0.00,CLR,,0.00,WeatherDisplay:10.37,2013-01-20 15:09:00,
2013-01-20 10:14:00,42.1,31.2,30.18,SE,136,1.0,1.0,65,0.00,CLR,,0.00,WeatherDisplay:10.37,2013-01-20 15:14:00,
2013-01-20 10:19:00,42.1,31.2,30.18,SE,136,1.0,1.0,65,0.00,CLR,,0.00,WeatherDisplay:10.37,2013-01-20 15:19:00,
2013-01-20 10:24:00,42.1,31.2,30.18,SE,136,1.0,1.0,65,0.00,CLR,,0.00,WeatherDisplay:10.37,2013-01-20 15:24:00,
2013-01-20 10:29:00,42.1,31.2,30.18,SE,136,1.0,1.0,65,0.00,CLR,,0.00,WeatherDisplay:10.37,2013-01-20 15:29:00,
2013-01-20 10:34:00,42.1,31.2,30.18,SE,136,1.0,1.0,65,0.00,CLR,,0.00,WeatherDisplay:10.37,2013-01-20 15:34:00,
2013-01-20 10:39:00,42.1,31.2,30.18,SE,136,1.0,1.0,65,0.00,CLR,,0.00,WeatherDisplay:10.37,2013-01-20 15:39:00,
2013-01-20 10:44:00,42.1,31.2,30.18,SE,136,1.0,1.0,65,0.00,CLR,,0.00,WeatherDisplay:10.37,2013-01-20 15:44:00,
2013-01-20 10:49:00,42.1,31.2,30.18,SE,136,1.0,1.0,65,0.00,CLR,,0.00,WeatherDisplay:10.37,2013-01-20 15:49:00,
2013-01-20 10:54:00,42.1,31.2,30.18,SE,136,1.0,1.0,65,0.00,CLR,,0.00,WeatherDisplay:10.37,2013-01-20 15:54:00,
2013-01-20 10:59:00,42.1,31.2,30.18,SE,136,1.0,1.0,65,0.00,CLR,,0.00,WeatherDisplay:10.37,2013-01-20 15:59:00,
2013-01-20 11:04:00,42.1,31.2,30.18,SE,136,1.0,1.0,65,0.00,CLR,,0.00,WeatherDisplay:10.37,2013-01-20 16:04:00,
2013-01-20 11:09:00,42.1,31.2,30.18,SE,136,1.0,1.0,65,0.00,CLR,,0.00,WeatherDisplay:10.37,2013-01-20 16:09:00,
2013-01-20 11:14:00,42.1,31.2,30.18,SE,136,1.0,1.0,65,0.00,CLR,,0.00,WeatherDisplay:10.37,2013-01-20 16:14:00,
2013-01-20 11:19:00,42.1,31.2,30.18,SE,136,1.0,1.0,65,0.00,CLR,,0.00,WeatherDisplay:10.37,2013-01-20 16:19:00,
2013-01-20 11:24:00,42.1,31.2,30.18,SE,136,1.0,1.0,65,0.00,CLR,,0.00,WeatherDisplay:10.37,2013-01-20 16:24:00,
2013-01-20 11:29:00,42.1,31.2,30.18,SE,136,1.0,1.0,65,0.00,CLR,,0.00,WeatherDisplay:10.37,2013-01-20 16:29:00,
2013-01-20 11:34:00,42.1,31.2,30.18,SE,136,1.0,1.0,65,0.00,CLR,,0.00,WeatherDisplay:10.37,2013-01-20 16:34:00,
2013-01-20 11:39:00,42.1,31.2,30.18,SE,136,1.0,1.0,65,0.00,CLR,,0.00,WeatherDisplay:10.37,2013-01-20 16:39:00,
2013-01-20 11:44:00,42.1,31.2,30.18,SE,136,1.0,1.0,65,0.00,CLR,,0.00,WeatherDisplay:10.37,2013-01-20 16:44:00,
2013-01-20 11:49:00,42.1,31.2,30.18,SE,136,1.0,1.0,65,0.00,CLR,,0.00,WeatherDisplay:10.37,2013-01-20 16:49:00,
2013-01-20 11:54:00,42.1,31.2,30.18,SE,136,1.0,1.0,65,0.00,CLR,,0.00,WeatherDisplay:10.37,2013-01-20 16:54:00,
2013-01-20 11:59:00,42.1,31.2,30.18,SE,136,1.0,1.0,65,0.00,CLR,,0.00,WeatherDisplay:10.37,2013-01-20 16:59:00,
2013-01-20 12:04:00,42.1,31.2,30.18,SE,136,1.0,1.0,65,0.00,CLR,,0.00,WeatherDisplay:10.37,2013-01-20 17:04:00,
2013-01-20 12:09:00,42.1,31.2,30.18,SE,136,1.0,1.0,65,0.00,CLR,,0.00,WeatherDisplay:10.37,2013-01-20 17:09:00,
2013-01-20 12:14:00,42.1,31.2,30.18,SE,136,1.0,1.0,65,0.00,CLR,,0.00,WeatherDisplay:10.37,2013-01-20 17:14:00,
2013-01-20 12:19:00,42.1,31.2,30.18,SE,136,1.0,1.0,65,0.00,CLR,,0.00,WeatherDisplay:10.37,2013-01-20 17:19:00,
2013-01-20 12:24:00,42.1,31.2,30.18,SE,136,1.0,1.0,65,0.00,CLR,,0.00,WeatherDisplay:10.37,2013-01-20 17:24:00,
2013-01-20 12:29:00,42.1,31.2,30.18,SE,136,1.0,1.0,65,0.00,CLR,,0.00,WeatherDisplay:10.37,2013-01-20 17:29:00,
2013-01-20 12:34:00,42.1,31.2,30.18,SE,136,1.0,1.0,65,0.00,CLR,,0.00,WeatherDisplay:10.37,2013-01-20 17:34:00,
2013-01-20 12:39:00,42.1,31.2,30.18,SE,136,1.0,1.0,65,0.00,CLR,,0.00,WeatherDisplay:10.37,2013-01-20 17:39:00,
2013-01-20 12:44:00,42.1,31.2,30.18,SE,136,1.0,1.0,65,0.00,CLR,,0.00,WeatherDisplay:10.37,2013-01-20 17:44:00,
2013-01-20 12:49:00,42.1,31.2,30.18,SE,136,1.0,1.0,65,0.00,CLR,,0.00,WeatherDisplay:10.37,2013-01-20 17:49:00,
2013-01-20 12:55:00,42.1,31.2,30.18,SE,136,1.0,1.0,65,0.00,CLR,,0.00,WeatherDisplay:10.37,2013-01-20 17:55:00,
2013-01-20 12:59:00,42.1,31.2,30.18,SE,136,1.0,1.0,65,0.00,CLR,,0.00,WeatherDisplay:10.37,2013-01-20 17:59:00,
2013-01-20 13:05:00,42.1,31.2,30.18,SE,136,1.0,1.0,65,0.00,CLR,,0.00,WeatherDisplay:10.37,2013-01-20 18:05:00,
2013-01-20 13:10:00,42.1,31.2,30.18,SE,136,1.0,1.0,65,0.00,CLR,,0.00,WeatherDisplay:10.37,2013-01-20 18:10:00,
2013-01-20 13:15:00,42.1,31.2,30.18,SE,136,1.0,1.0,65,0.00,CLR,,0.00,WeatherDisplay:10.37,2013-01-20 18:15:00,
2013-01-20 13:20:00,42.1,31.2,30.18,SE,136,1.0,1.0,65,0.00,CLR,,0.00,WeatherDisplay:10.37,2013-01-20 18:20:00,
2013-01-20 13:25:00,42.1,31.2,30.18,SE,136,1.0,1.0,65,0.00,CLR,,0.00,WeatherDisplay:10.37,2013-01-20 18:25:00,
2013-01-20 13:30:00,42.1,31.2,30.18,SE,136,1.0,1.0,65,0.00,CLR,,0.00,WeatherDisplay:10.37,2013-01-20 18:30:00,
2013-01-20 13:35:00,42.1,31.2,30.18,SE,136,1.0,1.0,65,0.00,CLR,,0.00,WeatherDisplay:10.37,2013-01-20 18:35:00,
2013-01-20 13:40:00,42.1,31.2,30.18,SE,136,1.0,1.0,65,0.00,CLR,,0.00,WeatherDisplay:10.37,2013-01-20 18:40:00,
2013-01-20 13:45:00,42.1,31.2,30.18,SE,136,1.0,1.0,65,0.00,CLR,,0.00,WeatherDisplay:10.37,2013-01-20 18:45:00,
2013-01-20 13:50:00,42.1,31.2,30.18,SE,136,1.0,1.0,65,0.00,CLR,,0.00,WeatherDisplay:10.37,2013-01-20 18:50:00,
2013-01-20 13:55:00,42.1,31.2,30.18,SE,136,1.0,1.0,65,0.00,CLR,,0.00,WeatherDisplay:10.37,2013-01-20 18:55:00,
2013-01-20 14:00:00,42.1,31.2,30.18,SE,136,1.0,1.0,65,0.00,CLR,,0.00,WeatherDisplay:10.37,2013-01-20 19:00:00,
2013-01-20 14:05:00,42.1,31.2,30.18,SE,136,1.0,1.0,65,0.00,CLR,,0.00,WeatherDisplay:10.37,2013-01-20 19:05:00,
2013-01-20 14:10:00,42.1,31.2,30.18,SE,136,1.0,1.0,65,0.00,CLR,,0.00,WeatherDisplay:10.37,2013-01-20 19:10:00,
2013-01-20 14:15:00,42.1,31.2,30.18,SE,136,1.0,1.0,65,0.00,CLR,,0.00,WeatherDisplay:10.37,2013-01-20 19:15:00,
2013-01-20 14:20:00,42.1,31.2,30.18,SE,136,1.0,1.0,65,0.00,CLR,,0.00,WeatherDisplay:10.37,2013-01-20 19:20:00,
2013-01-20 14:25:00,42.1,31.2,30.18,SE,136,1.0,1.0,65,0.00,CLR,,0.00,WeatherDisplay:10.37,2013-01-20 19:25:00,
2013-01-20 14:30:00,42.1,31.2,30.18,SE,136,1.0,1.0,65,0.00,CLR,,0.00,WeatherDisplay:10.37,2013-01-20 19:30:00,
2013-01-20 14:35:00,42.1,31.2,30.18,SE,136,1.0,1.0,65,0.00,CLR,,0.00,WeatherDisplay:10.37,2013-01-20 19:35:00,
2013-01-20 14:40:00,42.1,31.2,30.18,SE,136,1.0,1.0,65,0.00,CLR,,0.00,WeatherDisplay:10.37,2013-01-20 19:40:00,
2013-01-20 14:45:00,42.1,31.2,30.18,SE,136,1.0,1.0,65,0.00,CLR,,0.00,WeatherDisplay:10.37,2013-01-20 19:45:00,
2013-01-20 14:50:00,42.1,31.2,30.18,SE,136,1.0,1.0,65,0.00,CLR,,0.00,WeatherDisplay:10.37,2013-01-20 19:50:00,
2013-01-20 14:55:00,42.1,31.2,30.18,SE,136,1.0,1.0,65,0.00,CLR,,0.00,WeatherDisplay:10.37,2013-01-20 19:55:00,
2013-01-20 15:00:00,42.1,31.2,30.18,SE,136,1.0,1.0,65,0.00,CLR,,0.00,WeatherDisplay:10.37,2013-01-20 20:00:00,
2013-01-20 15:05:00,42.1,31.2,30.18,SE,136,1.0,1.0,65,0.00,CLR,,0.00,WeatherDisplay:10.37,2013-01-20 20:05:00,
2013-01-20 15:10:00,42.1,31.2,30.18,SE,136,1.0,1.0,65,0.00,CLR,,0.00,WeatherDisplay:10.37,2013-01-20 20:10:00,
2013-01-20 15:15:00,42.1,31.2,30.18,SE,136,1.0,1.0,65,0.00,CLR,,0.00,WeatherDisplay:10.37,2013-01-20 20:15:00,
2013-01-20 15:20:00,42.1,31.2,30.18,SE,136,1.0,1.0,65,0.00,CLR,,0.00,WeatherDisplay:10.37,2013-01-20 20:20:00,
2013-01-20 15:25:00,42.1,31.2,30.18,SE,136,1.0,1.0,65,0.00,CLR,,0.00,WeatherDisplay:10.37,2013-01-20 20:25:00,
2013-01-20 15:30:00,42.1,31.2,30.18,SE,136,1.0,1.0,65,0.00,CLR,,0.00,WeatherDisplay:10.37,2013-01-20 20:30:00,
2013-01-20 15:35:00,42.1,31.2,30.18,SE,136,1.0,1.0,65,0.00,CLR,,0.00,WeatherDisplay:10.37,2013-01-20 20:35:00,
2013-01-20 15:40:00,42.1,31.2,30.18,SE,136,1.0,1.0,65,0.00,CLR,,0.00,WeatherDisplay:10.37,2013-01-20 20:40:00,
2013-01-20 15:45:00,42.1,31.2,30.18,SE,136,1.0,1.0,65,0.00,CLR,,0.00,WeatherDisplay:10.37,2013-01-20 20:45:00,
2013-01-20 15:50:00,42.1,31.2,30.18,SE,136,1.0,1.0,65,0.00,CLR,,0.00,WeatherDisplay:10.37,2013-01-20 20:50:00,
2013-01-20 15:52:00,42.1,31.2,30.18,SE,136,1.0,1.0,65,0.00,CLR,,0.00,WeatherDisplay:10.37,2013-01-20 20:52:00,
2013-01-20 15:57:00,42.1,31.2,30.18,SE,136,1.0,1.0,65,0.00,CLR,,0.00,WeatherDisplay:10.37,2013-01-20 20:57:00,
2013-01-20 16:02:00,42.1,31.2,30.18,SE,136,1.0,1.0,65,0.00,CLR,,0.00,WeatherDisplay:10.37,2013-01-20 21:02:00,
2013-01-20 16:08:00,42.1,31.2,30.18,SE,136,1.0,1.0,65,0.00,CLR,,0.00,WeatherDisplay:10.37,2013-01-20 21:08:00,
2013-01-20 16:13:00,42.1,31.2,30.18,SE,136,1.0,1.0,65,0.00,CLR,,0.00,WeatherDisplay:10.37,2013-01-20 21:13:00,
2013-01-20 16:18:00,42.1,31.2,30.18,SE,136,1.0,1.0,65,0.00,CLR,,0.00,WeatherDisplay:10.37,2013-01-20 21:18:00,
2013-01-20 16:23:00,42.1,31.2,30.18,SE,136,1.0,1.0,65,0.00,CLR,,0.00,WeatherDisplay:10.37,2013-01-20 21:23:00,
2013-01-20 16:28:00,42.1,31.2,30.18,SE,136,1.0,1.0,65,0.00,CLR,,0.00,WeatherDisplay:10.37,2013-01-20 21:28:00,
2013-01-20 16:33:00,42.1,31.2,30.18,SE,136,1.0,1.0,65,0.00,CLR,,0.00,WeatherDisplay:10.37,2013-01-20 21:33:00,
2013-01-20 16:38:00,42.1,31.2,30.18,SE,136,1.0,1.0,65,0.00,CLR,,0.00,WeatherDisplay:10.37,2013-01-20 21:38:00,
2013-01-20 16:43:00,42.1,31.2,30.18,SE,136,1.0,1.0,65,0.00,CLR,,0.00,WeatherDisplay:10.37,2013-01-20 21:43:00,
2013-01-20 16:48:00,42.1,31.2,30.18,SE,136,1.0,1.0,65,0.00,CLR,,0.00,WeatherDisplay:10.37,2013-01-20 21:48:00,
2013-01-20 16:53:00,42.1,31.2,30.18,SE,136,1.0,1.0,65,0.00,CLR,,0.00,WeatherDisplay:10.37,2013-01-20 21:53:00,
2013-01-20 16:58:00,42.1,31.2,30.18,SE,136,1.0,1.0,65,0.00,CLR,,0.00,WeatherDisplay:10.37,2013-01-20 21:58:00,
2013-01-20 17:03:00,42.1,31.2,30.18,SE,136,1.0,1.0,65,0.00,CLR,,0.00,WeatherDisplay:10.37,2013-01-20 22:03:00,
2013-01-20 17:08:00,42.1,31.2,30.18,SE,136,1.0,1.0,65,0.00,CLR,,0.00,WeatherDisplay:10.37,2013-01-20 22:08:00,
2013-01-20 17:13:00,42.1,31.2,30.18,SE,136,1.0,1.0,65,0.00,CLR,,0.00,WeatherDisplay:10.37,2013-01-20 22:13:00,
2013-01-20 17:18:00,42.1,31.2,30.18,SE,136,1.0,1.0,65,0.00,CLR,,0.00,WeatherDisplay:10.37,2013-01-20 22:18:00,
2013-01-20 17:23:00,42.1,31.2,30.18,SE,136,1.0,1.0,65,0.00,CLR,,0.00,WeatherDisplay:10.37,2013-01-20 22:23:00,
2013-01-20 17:28:00,42.1,31.2,30.18,SE,136,1.0,1.0,65,0.00,CLR,,0.00,WeatherDisplay:10.37,2013-01-20 22:28:00,
2013-01-20 17:33:00,42.1,31.2,30.18,SE,136,1.0,1.0,65,0.00,CLR,,0.00,WeatherDisplay:10.37,2013-01-20 22:33:00,
2013-01-20 17:38:00,42.1,31.2,30.18,SE,136,1.0,1.0,65,0.00,CLR,,0.00,WeatherDisplay:10.37,2013-01-20 22:38:00,
2013-01-20 17:43:00,42.1,31.2,30.18,SE,136,1.0,1.0,65,0.00,CLR,,0.00,WeatherDisplay:10.37,2013-01-20 22:43:00,
2013-01-20 17:48:00,42.1,31.2,30.18,SE,136,1.0,1.0,65,0.00,CLR,,0.00,WeatherDisplay:10.37,2013-01-20 22:48:00,
2013-01-20 17:53:00,42.1,31.2,30.18,SE,136,1.0,1.0,65,0.00,CLR,,0.00,WeatherDisplay:10.37,2013-01-20 22:53:00,
2013-01-20 17:58:00,42.1,31.2,30.18,SE,136,1.0,1.0,65,0.00,CLR,,0.00,WeatherDisplay:10.37,2013-01-20 22:58:00,
2013-01-20 18:03:00,42.1,31.2,30.18,SE,136,1.0,1.0,65,0.00,CLR,,0.00,WeatherDisplay:10.37,2013-01-20 23:03:00,
2013-01-20 18:08:00,42.1,31.2,30.18,SE,136,1.0,1.0,65,0.00,CLR,,0.00,WeatherDisplay:10.37,2013-01-20 23:08:00,
2013-01-20 18:13:00,42.1,31.2,30.18,SE,136,1.0,1.0,65,0.00,CLR,,0.00,WeatherDisplay:10.37,2013-01-20 23:13:00,
2013-01-20 18:18:00,42.1,31.2,30.18,SE,136,1.0,1.0,65,0.00,CLR,,0.00,WeatherDisplay:10.37,2013-01-20 23:18:00,
2013-01-20 18:23:00,42.1,31.2,30.18,SE,136,1.0,1.0,65,0.00,CLR,,0.00,WeatherDisplay:10.37,2013-01-20 23:23:00,
2013-01-20 18:28:00,42.1,31.2,30.18,SE,136,1.0,1.0,65,0.00,CLR,,0.00,WeatherDisplay:10.37,2013-01-20 23:28:00,
2013-01-20 18:33:00,42.1,31.2,30.18,SE,136,1.0,1.0,65,0.00,CLR,,0.00,WeatherDisplay:10.37,2013-01-20 23:33:00,
2013-01-20 18:38:00,42.1,31.2,30.18,SE,136,1.0,1.0,65,0.00,CLR,,0.00,WeatherDisplay:10.37,2013-01-20 23:38:00,
2013-01-20 18:43:00,42.1,31.2,30.18,SE,136,1.0,1.0,65,0.00,CLR,,0.00,WeatherDisplay:10.37,2013-01-20 23:43:00,
2013-01-20 18:48:00,42.1,31.2,30.18,SE,136,1.0,1.0,65,0.00,CLR,,0.00,WeatherDisplay:10.37,2013-01-20 23:48:00,
2013-01-20 18:53:00,42.1,31.2,30.18,SE,136,1.0,1.0,65,0.00,CLR,,0.00,WeatherDisplay:10.37,2013-01-20 23:53:00,
2013-01-20 18:58:00,42.1,31.2,30.18,SE,136,1.0,1.0,65,0.00,CLR,,0.00,WeatherDisplay:10.37,2013-01-20 23:58:00,
2013-01-20 19:03:00,42.1,31.2,30.18,SE,136,1.0,1.0,65,0.00,CLR,,0.00,WeatherDisplay:10.37,2013-01-21 00:03:00,
2013-01-20 19:08:00,42.1,31.2,30.18,SE,136,1.0,1.0,65,0.00,CLR,,0.00,WeatherDisplay:10.37,2013-01-21 00:08:00,
2013-01-20 19:13:00,42.1,31.2,30.18,SE,136,1.0,1.0,65,0.00,CLR,,0.00,WeatherDisplay:10.37,2013-01-21 00:13:00,
2013-01-20 19:18:00,42.1,31.2,30.18,SE,136,1.0,1.0,65,0.00,CLR,,0.00,WeatherDisplay:10.37,2013-01-21 00:18:00,
2013-01-20 19:23:00,42.1,31.2,30.18,SE,136,1.0,1.0,65,0.00,CLR,,0.00,WeatherDisplay:10.37,2013-01-21 00:23:00,
2013-01-20 19:28:00,42.1,31.2,30.18,SE,136,1.0,1.0,65,0.00,CLR,,0.00,WeatherDisplay:10.37,2013-01-21 00:28:00,
2013-01-20 19:33:00,42.1,31.2,30.18,SE,136,1.0,1.0,65,0.00,CLR,,0.00,WeatherDisplay:10.37,2013-01-21 00:33:00,
2013-01-20 19:38:00,42.1,31.2,30.18,SE,136,1.0,1.0,65,0.00,CLR,,0.00,WeatherDisplay:10.37,2013-01-21 00:38:00,
2013-01-20 19:43:00,42.1,31.2,30.18,SE,136,1.0,1.0,65,0.00,CLR,,0.00,WeatherDisplay:10.37,2013-01-21 00:43:00,
2013-01-20 19:48:00,42.1,31.2,30.18,SE,136,1.0,1.0,65,0.00,CLR,,0.00,WeatherDisplay:10.37,2013-01-21 00:48:00,
2013-01-20 19:53:00,42.1,31.2,30.18,SE,136,1.0,1.0,65,0.00,CLR,,0.00,WeatherDisplay:10.37,2013-01-21 00:53:00,
2013-01-20 19:58:00,42.1,31.2,30.18,SE,136,1.0,1.0,65,0.00,CLR,,0.00,WeatherDisplay:10.37,2013-01-21 00:58:00,
2013-01-20 20:03:00,42.1,31.2,30.18,SE,136,1.0,1.0,65,0.00,CLR,,0.00,WeatherDisplay:10.37,2013-01-21 01:03:00,
2013-01-20 20:08:00,42.1,31.2,30.18,SE,136,1.0,1.0,65,0.00,CLR,,0.00,WeatherDisplay:10.37,2013-01-21 01:08:00,
2013-01-20 20:13:00,42.1,31.2,30.18,SE,136,1.0,1.0,65,0.00,CLR,,0.00,WeatherDisplay:10.37,2013-01-21 01:13:00,
2013-01-20 20:18:00,42.1,31.2,30.18,SE,136,1.0,1.0,65,0.00,CLR,,0.00,WeatherDisplay:10.37,2013-01-21 01:18:00,
2013-01-20 20:23:00,42.1,31.2,30.18,SE,136,1.0,1.0,65,0.00,CLR,,0.00,WeatherDisplay:10.37,2013-01-21 01:23:00,
2013-01-20 20:28:00,42.1,31.2,30.18,SE,136,1.0,1.0,65,0.00,CLR,,0.00,WeatherDisplay:10.37,2013-01-21 01:28:00,
2013-01-20 20:33:00,42.1,31.2,30.18,SE,136,1.0,1.0,65,0.00,CLR,,0.00,WeatherDisplay:10.37,2013-01-21 01:33:00,
2013-01-20 20:38:00,42.1,31.2,30.18,SE,136,1.0,1.0,65,0.00,CLR,,0.00,WeatherDisplay:10.37,2013-01-21 01:38:00,
2013-01-20 20:43:00,42.1,31.2,30.18,SE,136,1.0,1.0,65,0.00,CLR,,0.00,WeatherDisplay:10.37,2013-01-21 01:43:00,
2013-01-20 20:48:00,42.1,31.2,30.18,SE,136,1.0,1.0,65,0.00,CLR,,0.00,WeatherDisplay:10.37,2013-01-21 01:48:00,
2013-01-20 20:53:00,42.1,31.2,30.18,SE,136,1.0,1.0,65,0.00,CLR,,0.00,WeatherDisplay:10.37,2013-01-21 01:53:00,
2013-01-20 20:59:00,42.1,31.2,30.18,SE,136,1.0,1.0,65,0.00,CLR,,0.00,WeatherDisplay:10.37,2013-01-21 01:59:00,
2013-01-20 21:04:00,42.1,31.2,30.18,SE,136,1.0,1.0,65,0.00,CLR,,0.00,WeatherDisplay:10.37,2013-01-21 02:04:00,
2013-01-20 21:09:00,42.1,31.2,30.18,SE,136,1.0,1.0,65,0.00,CLR,,0.00,WeatherDisplay:10.37,2013-01-21 02:09:00,
2013-01-20 21:14:00,42.1,31.2,30.18,SE,136,1.0,1.0,65,0.00,CLR,,0.00,WeatherDisplay:10.37,2013-01-21 02:14:00,
2013-01-20 21:19:00,42.1,31.2,30.18,SE,136,1.0,1.0,65,0.00,CLR,,0.00,WeatherDisplay:10.37,2013-01-21 02:19:00,
2013-01-20 21:24:00,42.1,31.2,30.18,SE,136,1.0,1.0,65,0.00,CLR,,0.00,WeatherDisplay:10.37,2013-01-21 02:24:00,
2013-01-20 21:29:00,42.1,31.2,30.18,SE,136,1.0,1.0,65,0.00,CLR,,0.00,WeatherDisplay:10.37,2013-01-21 02:29:00,
2013-01-20 21:34:00,42.1,31.2,30.18,SE,136,1.0,1.0,65,0.00,CLR,,0.00,WeatherDisplay:10.37,2013-01-21 02:34:00,
2013-01-20 21:39:00,42.1,31.2,30.18,SE,136,1.0,1.0,65,0.00,CLR,,0.00,WeatherDisplay:10.37,2013-01-21 02:39:00,
2013-01-20 21:44:00,42.1,31.2,30.18,SE,136,1.0,1.0,65,0.00,CLR,,0.00,WeatherDisplay:10.37,2013-01-21 02:44:00,
2013-01-20 21:49:00,42.1,31.2,30.18,SE,136,1.0,1.0,65,0.00,CLR,,0.00,WeatherDisplay:10.37,2013-01-21 02:49:00,
2013-01-20 21:54:00,42.1,31.2,30.18,SE,136,1.0,1.0,65,0.00,CLR,,0.00,WeatherDisplay:10.37,2013-01-21 02:54:00,
2013-01-20 21:59:00,42.1,31.2,30.18,SE,136,1.0,1.0,65,0.00,CLR,,0.00,WeatherDisplay:10.37,2013-01-21 02:59:00,
2013-01-20 22:04:00,42.1,31.2,30.18,SE,136,1.0,1.0,65,0.00,CLR,,0.00,WeatherDisplay:10.37,2013-01-21 03:04:00,
2013-01-20 22:09:00,42.1,31.2,30.18,SE,136,1.0,1.0,65,0.00,CLR,,0.00,WeatherDisplay:10.37,2013-01-21 03:09:00,
2013-01-20 22:14:00,42.1,31.2,30.18,SE,136,1.0,1.0,65,0.00,CLR,,0.00,WeatherDisplay:10.37,2013-01-21 03:14:00,
2013-01-20 22:19:00,42.1,31.2,30.18,SE,136,1.0,1.0,65,0.00,CLR,,0.00,WeatherDisplay:10.37,2013-01-21 03:19:00,
2013-01-20 22:24:00,42.1,31.2,30.18,SE,136,1.0,1.0,65,0.00,CLR,,0.00,WeatherDisplay:10.37,2013-01-21 03:24:00,
2013-01-20 22:29:00,42.1,31.2,30.18,SE,136,1.0,1.0,65,0.00,CLR,,0.00,WeatherDisplay:10.37,2013-01-21 03:29:00,
2013-01-20 22:34:00,42.1,31.2,30.18,SE,136,1.0,1.0,65,0.00,CLR,,0.00,WeatherDisplay:10.37,2013-01-21 03:34:00,
2013-01-20 22:39:00,42.1,31.2,30.18,SE,136,1.0,1.0,65,0.00,CLR,,0.00,WeatherDisplay:10.37,2013-01-21 03:39:00,
2013-01-20 22:44:00,42.1,31.2,30.18,SE,136,1.0,1.0,65,0.00,CLR,,0.00,WeatherDisplay:10.37,2013-01-21 03:44:00,
2013-01-20 22:49:00,42.1,31.2,30.18,SE,136,1.0,1.0,65,0.00,CLR,,0.00,WeatherDisplay:10.37,2013-01-21 03:49:00,
2013-01-20 22:54:00,42.1,31.2,30.18,SE,136,1.0,1.0,65,0.00,CLR,,0.00,WeatherDisplay:10.37,2013-01-21 03:54:00,
2013-01-20 22:59:00,42.1,31.2,30.18,SE,136,1.0,1.0,65,0.00,CLR,,0.00,WeatherDisplay:10.37,2013-01-21 03:59:00,
2013-01-20 23:04:00,42.1,31.2,30.18,SE,136,1.0,1.0,65,0.00,CLR,,0.00,WeatherDisplay:10.37,2013-01-21 04:04:00,
2013-01-20 23:09:00,55.6,35.7,30.05,West,270,1.0,2.0,47,0.00,CL,CL,0.00,WeatherDisplay:10.37,2013-01-21 04:09:00,